Time;durP1;ratioP1;P1;durP2;ratioP2;P2;SDS_P1;SDS_P2;PMS_P1;PMS_P2;Temp;Humidity;BMP_temperature;BMP_pressure;BME280_temperature;BME280_humidity;BME280_pressure;Samples;Min_cycle;Max_cycle;Signal;HPM_P1;HPM_P2
2022/06/21 00:00:05;;;;;;;2.65;0.88;;;22.40;54.60;;;;;;4430546;32;20153;-67
2022/06/21 00:02:31;;;;;;;3.15;0.77;;;22.40;54.60;;;;;;4430673;32;20090;-68
2022/06/21 00:04:57;;;;;;;2.35;0.95;;;22.40;54.60;;;;;;4430922;32;20141;-67
2022/06/21 00:07:43;;;;;;;3.08;0.98;;;22.40;54.60;;;;;;4408197;32;20082;-67
2022/06/21 00:10:18;;;;;;;2.60;0.90;;;22.40;54.60;;;;;;4430680;32;20133;-69
2022/06/21 00:12:44;;;;;;;1.58;0.52;;;22.40;54.60;;;;;;4430541;32;20092;-67
2022/06/21 00:15:11;;;;;;;2.65;0.85;;;22.40;54.60;;;;;;4430417;32;20168;-67
2022/06/21 00:17:47;;;;;;;1.90;1.00;;;22.40;54.70;;;;;;4430755;32;20201;-67
2022/06/21 00:20:20;;;;;;;2.55;0.85;;;22.30;54.60;;;;;;4430362;32;20129;-68
2022/06/21 00:23:09;;;;;;;1.55;0.63;;;22.30;54.70;;;;;;4419032;32;20179;-68
2022/06/21 00:25:35;;;;;;;3.22;0.80;;;22.30;54.70;;;;;;4429996;32;20114;-67
2022/06/21 00:28:01;;;;;;;1.95;0.80;;;22.30;54.70;;;;;;4430496;32;20089;-67
2022/06/21 00:30:27;;;;;;;2.58;0.80;;;22.30;54.70;;;;;;4430271;32;20074;-67
2022/06/21 00:33:15;;;;;;;2.42;0.70;;;22.30;54.70;;;;;;4408085;32;20075;-67
2022/06/21 00:35:43;;;;;;;2.35;0.80;;;22.30;54.70;;;;;;4416100;32;20165;-68
2022/06/21 00:38:18;;;;;;;3.08;1.15;;;22.30;54.70;;;;;;4429979;32;20516;-67
2022/06/21 00:40:44;;;;;;;1.73;0.70;;;22.30;54.70;;;;;;4429952;32;20101;-67
2022/06/21 00:43:35;;;;;;;3.67;1.00;;;22.30;54.70;;;;;;4418667;32;20066;-67
2022/06/21 00:46:33;;;;;;;1.20;0.70;;;22.30;54.80;;;;;;4418774;32;20110;-67
2022/06/21 00:49:23;;;;;;;2.85;0.90;;;22.30;54.80;;;;;;4418358;32;20096;-67
2022/06/21 00:51:57;;;;;;;1.73;0.70;;;22.30;54.80;;;;;;4430343;32;20074;-67
2022/06/21 00:54:49;;;;;;;2.17;0.80;;;22.30;54.80;;;;;;4418436;32;20125;-67
2022/06/21 00:57:20;;;;;;;1.48;0.63;;;22.20;54.80;;;;;;4430324;32;20471;-67
2022/06/21 01:00:29;;;;;;;1.58;0.80;;;22.20;54.70;;;;;;4418562;32;20129;-68
2022/06/21 01:02:56;;;;;;;1.35;0.63;;;22.30;54.80;;;;;;4429706;32;20101;-67
2022/06/21 01:05:45;;;;;;;2.30;1.02;;;22.20;54.80;;;;;;4418482;32;20216;-68
2022/06/21 01:08:17;;;;;;;1.73;0.60;;;22.20;54.80;;;;;;4429787;32;20630;-67
2022/06/21 01:10:46;;;;;;;1.70;0.50;;;22.20;54.80;;;;;;4430191;32;20511;-67
2022/06/21 01:13:37;;;;;;;1.77;0.70;;;22.20;54.90;;;;;;4418435;32;20085;-68
2022/06/21 01:16:04;;;;;;;1.85;0.70;;;22.20;54.80;;;;;;4429797;32;20540;-67
2022/06/21 01:18:30;;;;;;;1.45;0.60;;;22.20;54.80;;;;;;4429705;32;20516;-67
2022/06/21 01:20:59;;;;;;;1.45;0.70;;;22.20;54.80;;;;;;4429877;32;20079;-68
2022/06/21 01:23:57;;;;;;;2.63;0.70;;;22.20;55.80;;;;;;4418346;32;20071;-67
2022/06/21 01:26:35;;;;;;;1.70;0.93;;;22.20;54.80;;;;;;4429603;32;20078;-67
2022/06/21 01:29:25;;;;;;;1.92;0.70;;;22.20;54.90;;;;;;4418279;32;20090;-67
2022/06/21 01:32:11;;;;;;;1.80;0.77;;;22.20;54.90;;;;;;4418243;32;20560;-67
2022/06/21 01:34:37;;;;;;;2.22;0.95;;;22.20;54.90;;;;;;4429659;32;20088;-67
2022/06/21 01:37:19;;;;;;;1.38;0.73;;;22.20;54.90;;;;;;4415533;32;20144;-67
2022/06/21 01:40:03;;;;;;;3.28;0.88;;;22.20;54.90;;;;;;4429575;32;20205;-67
2022/06/21 01:42:31;;;;;;;;;;;22.20;54.90;;;;;;4430345;32;20500;-67
2022/06/21 01:45:02;;;;;;;1.45;0.60;;;22.10;54.80;;;;;;4429253;32;19974;-68
2022/06/21 01:47:36;;;;;;;2.72;0.80;;;22.20;55.00;;;;;;4429840;32;20078;-68
2022/06/21 01:50:04;;;;;;;2.35;0.93;;;22.10;54.90;;;;;;4429556;32;20086;-67
2022/06/21 01:52:34;;;;;;;1.63;0.70;;;22.10;54.90;;;;;;4429460;32;20172;-67
2022/06/21 01:55:05;;;;;;;1.45;0.60;;;22.10;55.00;;;;;;4429171;32;20089;-67
2022/06/21 01:57:32;;;;;;;1.98;0.75;;;22.10;55.00;;;;;;4429508;32;20093;-67
2022/06/21 01:59:58;;;;;;;1.67;0.70;;;22.10;55.00;;;;;;4415635;32;20220;-67
2022/06/21 02:02:37;;;;;;;1.33;0.52;;;22.10;55.00;;;;;;4429412;32;20163;-67
2022/06/21 02:05:35;;;;;;;2.22;0.80;;;22.10;55.00;;;;;;4429434;32;20390;-67
2022/06/21 02:08:24;;;;;;;3.58;0.90;;;22.10;55.00;;;;;;4417975;32;20101;-67
2022/06/21 02:11:24;;;;;;;2.00;0.80;;;22.10;55.00;;;;;;4417739;32;20208;-67
2022/06/21 02:16:43;;;;;;;1.33;0.50;;;22.10;55.00;;;;;;4429631;32;20070;-67
2022/06/21 02:19:36;;;;;;;1.80;0.77;;;22.10;55.10;;;;;;4417863;32;20543;-67
2022/06/21 02:22:03;;;;;;;1.60;0.57;;;22.10;55.10;;;;;;4429392;32;20082;-67
2022/06/21 02:24:30;;;;;;;2.45;0.60;;;22.10;55.10;;;;;;4429236;32;20070;-69
2022/06/21 02:26:59;;;;;;;2.50;0.70;;;22.10;55.10;;;;;;4429303;32;20519;-68
2022/06/21 02:29:25;;;;;;;0.95;0.40;;;22.10;55.10;;;;;;4415388;32;20070;-67
2022/06/21 02:32:15;;;;;;;0.95;0.50;;;22.10;55.10;;;;;;4430878;32;20251;-67
2022/06/21 02:34:44;;;;;;;1.55;0.60;;;22.10;55.10;;;;;;4432016;32;20235;-67
2022/06/21 02:37:12;;;;;;;2.05;0.70;;;22.10;55.10;;;;;;4431928;32;20086;-68
2022/06/21 02:40:01;;;;;;;1.02;0.50;;;22.10;55.10;;;;;;4420159;32;20126;-67
2022/06/21 02:42:35;;;;;;;2.22;0.77;;;22.00;55.10;;;;;;4431888;32;20438;-67
2022/06/21 02:45:33;;;;;;;1.80;0.50;;;22.10;55.10;;;;;;4420804;32;20105;-67
2022/06/21 02:48:08;;;;;;;1.02;0.55;;;22.00;55.10;;;;;;4431718;32;20102;-67
2022/06/21 02:50:51;;;;;;;1.13;0.60;;;22.00;55.10;;;;;;4431819;32;20066;-67
2022/06/21 02:53:59;;;;;;;1.88;0.70;;;22.00;55.10;;;;;;4420058;32;20082;-68
2022/06/21 02:57:01;;;;;;;1.02;0.52;;;22.00;55.10;;;;;;4420315;32;20487;-67
2022/06/21 02:59:31;;;;;;;1.75;0.80;;;22.00;55.10;;;;;;4431724;32;20076;-68
2022/06/21 03:02:00;;;;;;;2.13;0.68;;;22.00;55.10;;;;;;4431631;32;20094;-68
2022/06/21 03:04:53;;;;;;;1.35;0.60;;;22.00;55.10;;;;;;4420296;32;20102;-67
2022/06/21 03:07:42;;;;;;;0.80;0.40;;;22.00;55.10;;;;;;4419831;32;20148;-68
2022/06/21 03:10:18;;;;;;;0.90;0.50;;;22.00;55.10;;;;;;4431443;32;20183;-68
2022/06/21 03:13:08;;;;;;;0.85;0.40;;;22.00;55.10;;;;;;4420111;32;20082;-68
2022/06/21 03:15:35;;;;;;;1.80;0.50;;;22.00;55.20;;;;;;4431654;32;20096;-67
2022/06/21 03:18:24;;;;;;;1.48;0.60;;;22.00;55.20;;;;;;4420033;32;20086;-67
2022/06/21 03:20:52;;;;;;;2.10;0.85;;;22.00;55.20;;;;;;4431023;32;20067;-68
2022/06/21 03:23:19;;;;;;;2.00;0.60;;;22.00;55.20;;;;;;4431229;32;20090;-67
2022/06/21 03:25:57;;;;;;;0.70;0.40;;;22.00;55.20;;;;;;4431190;32;20105;-67
2022/06/21 03:28:45;;;;;;;1.10;0.52;;;22.00;55.20;;;;;;4419902;32;20082;-68
2022/06/21 03:31:23;;;;;;;1.80;0.52;;;22.00;55.20;;;;;;4430966;32;20219;-68
2022/06/21 03:34:13;;;;;;;0.82;0.43;;;22.00;55.20;;;;;;4419782;32;20374;-68
2022/06/21 03:36:40;;;;;;;1.67;0.60;;;21.90;55.20;;;;;;4431441;32;20412;-67
2022/06/21 03:39:12;;;;;;;0.95;0.45;;;21.90;55.10;;;;;;4431089;32;20114;-67
2022/06/21 03:41:43;;;;;;;0.80;0.50;;;21.90;55.20;;;;;;4431448;32;20066;-67
2022/06/21 03:44:34;;;;;;;0.77;0.40;;;21.90;55.20;;;;;;4430510;32;20066;-67
2022/06/21 03:47:06;;;;;;;1.15;0.50;;;21.90;55.20;;;;;;4430981;32;20133;-67
2022/06/21 03:49:54;;;;;;;1.58;0.60;;;21.90;55.20;;;;;;4430630;32;20086;-67
2022/06/21 03:52:41;;;;;;;1.05;0.50;;;21.90;55.20;;;;;;4419456;32;20083;-67
2022/06/21 03:55:31;;;;;;;0.80;0.45;;;21.90;55.20;;;;;;4430791;32;20101;-68
2022/06/21 03:58:42;;;;;;;1.02;0.52;;;21.90;55.20;;;;;;4419138;32;20085;-67
2022/06/21 04:01:48;;;;;;;1.00;0.60;;;21.90;55.20;;;;;;4419343;32;20106;-67
2022/06/21 04:04:42;;;;;;;1.05;0.45;;;21.90;55.30;;;;;;4419137;32;20090;-67
2022/06/21 04:07:34;;;;;;;1.02;0.40;;;21.90;55.30;;;;;;4430730;32;20263;-68
2022/06/21 04:10:22;;;;;;;0.65;0.30;;;21.90;55.30;;;;;;4430758;32;20181;-67
2022/06/21 04:13:18;;;;;;;1.05;0.50;;;21.90;55.20;;;;;;4419170;32;20090;-68
2022/06/21 04:16:14;;;;;;;0.82;0.57;;;21.80;55.20;;;;;;4419208;32;20184;-67
2022/06/21 04:18:48;;;;;;;1.30;0.60;;;21.80;55.30;;;;;;4430591;32;20070;-67
2022/06/21 04:21:24;;;;;;;0.68;0.50;;;21.80;55.20;;;;;;4430452;32;20177;-68
2022/06/21 04:24:10;;;;;;;0.40;0.30;;;21.90;55.30;;;;;;4430417;32;20086;-67
2022/06/21 04:26:49;;;;;;;1.38;0.50;;;21.80;55.20;;;;;;4430122;32;20172;-67
2022/06/21 04:29:31;;;;;;;1.20;0.60;;;21.80;55.20;;;;;;4430692;32;20117;-68
2022/06/21 04:32:14;;;;;;;1.35;0.50;;;21.80;55.30;;;;;;4430403;32;20083;-67
2022/06/21 04:34:58;;;;;;;1.27;0.50;;;21.80;55.30;;;;;;4430093;32;20200;-67
2022/06/21 04:37:32;;;;;;;;;;;21.80;55.30;;;;;;4431534;32;20216;-68
2022/06/21 04:40:28;;;;;;;0.87;0.50;;;21.80;55.30;;;;;;4418620;32;19979;-67
2022/06/21 04:43:06;;;;;;;0.90;0.40;;;21.80;55.40;;;;;;4430180;32;20248;-67
2022/06/21 04:45:54;;;;;;;1.25;0.60;;;21.80;55.40;;;;;;4430641;32;20109;-68
2022/06/21 04:48:44;;;;;;;0.90;0.47;;;21.80;55.40;;;;;;4429332;32;20634;-67
2022/06/21 04:51:25;;;;;;;1.15;0.50;;;21.80;55.40;;;;;;4429790;32;20280;-67
2022/06/21 04:54:36;;;;;;;0.73;0.50;;;21.80;55.40;;;;;;4418460;32;20075;-67
2022/06/21 04:57:05;;;;;;;0.82;0.40;;;21.80;55.40;;;;;;4430001;32;20086;-67
2022/06/21 04:59:46;;;;;;;1.67;0.50;;;21.80;55.40;;;;;;4429853;32;20393;-67
2022/06/21 05:02:44;;;;;;;0.95;0.50;;;21.80;55.40;;;;;;4407788;32;20082;-66
2022/06/21 05:05:20;;;;;;;0.75;0.40;;;21.80;55.40;;;;;;4429925;32;20157;-67
2022/06/21 05:08:11;;;;;;;1.25;0.55;;;21.80;55.40;;;;;;4418174;32;20074;-68
2022/06/21 05:10:42;;;;;;;0.80;0.40;;;21.80;55.40;;;;;;4430194;32;20500;-67
2022/06/21 05:13:20;;;;;;;1.17;0.50;;;21.80;55.40;;;;;;4429880;32;20078;-67
2022/06/21 05:15:47;;;;;;;0.98;0.45;;;21.80;55.50;;;;;;4429828;32;20701;-67
2022/06/21 05:18:29;;;;;;;0.63;0.47;;;21.80;55.40;;;;;;4429716;32;20089;-67
2022/06/21 05:21:13;;;;;;;1.17;0.35;;;21.80;55.40;;;;;;4429251;32;20228;-68
2022/06/21 05:23:40;;;;;;;1.50;0.60;;;21.80;55.40;;;;;;4429979;32;20468;-67
2022/06/21 05:26:20;;;;;;;0.77;0.47;;;21.80;55.40;;;;;;4415671;32;20106;-68
2022/06/21 05:28:53;;;;;;;1.17;0.40;;;21.80;55.40;;;;;;4429600;32;20081;-67
2022/06/21 05:31:23;;;;;;;1.17;0.50;;;21.80;55.40;;;;;;4429574;32;20129;-67
2022/06/21 05:34:20;;;;;;;0.93;0.40;;;21.80;55.40;;;;;;4417900;32;20089;-68
2022/06/21 05:36:58;;;;;;;0.77;0.40;;;21.80;55.40;;;;;;4429414;32;20090;-67
2022/06/21 05:39:30;;;;;;;0.98;0.38;;;21.80;55.40;;;;;;4429481;32;20093;-67
2022/06/21 05:42:19;;;;;;;1.17;0.47;;;21.80;55.40;;;;;;4418002;32;20106;-67
2022/06/21 05:44:50;;;;;;;1.98;0.50;;;21.80;55.40;;;;;;4429745;32;20078;-67
2022/06/21 05:47:27;;;;;;;1.25;0.30;;;21.80;55.40;;;;;;4429550;32;20160;-67
2022/06/21 05:49:56;;;;;;;0.93;0.50;;;21.80;55.30;;;;;;4429601;32;20082;-67
2022/06/21 05:52:40;;;;;;;0.75;0.35;;;21.90;55.30;;;;;;4429447;32;20431;-67
2022/06/21 05:55:33;;;;;;;0.88;0.40;;;21.90;55.30;;;;;;4417856;32;20067;-67
2022/06/21 05:58:13;;;;;;;1.55;0.40;;;21.90;55.30;;;;;;4429871;32;20081;-67
2022/06/21 06:01:03;;;;;;;0.85;0.50;;;21.90;55.30;;;;;;4429974;32;20066;-67
2022/06/21 06:03:46;;;;;;;1.52;0.43;;;21.90;55.20;;;;;;4429707;32;20088;-67
2022/06/21 06:06:36;;;;;;;0.68;0.30;;;21.90;55.20;;;;;;4419010;32;20400;-67
2022/06/21 06:09:26;;;;;;;0.98;0.40;;;22.00;55.30;;;;;;4432379;32;20173;-67
2022/06/21 06:12:18;;;;;;;0.90;0.43;;;21.90;55.20;;;;;;4432383;32;20088;-67
2022/06/21 06:15:35;;;;;;;1.30;0.43;;;22.00;55.20;;;;;;4420929;32;20082;-67
2022/06/21 06:18:16;;;;;;;1.05;0.40;;;22.00;55.20;;;;;;4418788;32;20089;-67
2022/06/21 06:20:58;;;;;;;1.02;0.40;;;22.00;55.20;;;;;;4432257;32;20524;-67
2022/06/21 06:23:55;;;;;;;1.02;0.47;;;22.00;55.20;;;;;;4420788;32;20092;-67
2022/06/21 06:26:26;;;;;;;0.77;0.40;;;22.00;55.20;;;;;;4431899;32;20078;-67
2022/06/21 06:29:17;;;;;;;1.25;0.40;;;22.00;55.20;;;;;;4420584;32;20100;-67
2022/06/21 06:32:25;;;;;;;0.90;0.40;;;22.00;55.20;;;;;;4431442;32;20083;-67
2022/06/21 06:35:20;;;;;;;1.00;0.40;;;22.00;55.20;;;;;;4420451;32;20078;-67
2022/06/21 06:37:46;;;;;;;0.50;0.30;;;22.00;55.30;;;;;;4432310;32;20102;-67
2022/06/21 06:40:37;;;;;;;0.60;0.40;;;22.00;55.30;;;;;;4431459;32;20226;-67
2022/06/21 06:43:10;;;;;;;0.77;0.50;;;22.00;55.30;;;;;;4424706;32;20086;-67
2022/06/21 06:45:58;;;;;;;0.55;0.40;;;22.00;55.30;;;;;;4420484;32;20078;-67
2022/06/21 06:48:45;;;;;;;0.82;0.40;;;22.00;55.40;;;;;;4420272;32;20085;-67
2022/06/21 06:51:39;;;;;;;0.57;0.30;;;22.00;55.40;;;;;;4420525;32;20105;-67
2022/06/21 06:54:20;;;;;;;0.90;0.30;;;22.00;55.40;;;;;;4431781;32;20546;-67
2022/06/21 06:57:14;;;;;;;0.60;0.40;;;21.90;55.30;;;;;;4431518;32;20479;-67
2022/06/21 07:00:01;;;;;;;;;;;21.90;55.40;;;;;;4403518;32;20412;-67
2022/06/21 07:03:01;;;;;;;0.52;0.20;;;21.90;55.40;;;;;;4420103;32;20451;-67
2022/06/21 07:05:58;;;;;;;0.60;0.43;;;21.90;55.40;;;;;;4419967;32;20105;-67
2022/06/21 07:08:39;;;;;;;1.10;0.52;;;21.90;55.40;;;;;;4431627;32;20412;-67
2022/06/21 07:11:25;;;;;;;2.08;0.40;;;21.90;55.40;;;;;;4431754;32;20176;-68
2022/06/21 07:13:52;;;;;;;1.92;0.40;;;22.00;55.50;;;;;;4431314;32;20092;-67
2022/06/21 07:16:39;;;;;;;0.57;0.30;;;22.00;55.50;;;;;;4420041;32;20363;-67
2022/06/21 07:19:07;;;;;;;1.02;0.22;;;22.00;55.40;;;;;;4431458;32;20081;-67
2022/06/21 07:21:54;;;;;;;0.88;0.47;;;22.00;55.40;;;;;;4419985;32;20404;-71
2022/06/21 07:24:21;;;;;;;1.90;0.50;;;22.00;55.50;;;;;;4431550;32;20255;-67
2022/06/21 07:27:01;;;;;;;0.35;0.30;;;22.10;55.50;;;;;;4431182;32;20122;-68
2022/06/21 07:29:43;;;;;;;2.20;0.60;;;22.10;55.40;;;;;;4431031;32;20126;-68
2022/06/21 07:32:18;;;;;;;1.42;0.52;;;22.20;55.50;;;;;;4431451;32;20074;-67
2022/06/21 07:35:00;;;;;;;3.55;0.55;;;22.20;55.50;;;;;;4431458;32;20104;-68
2022/06/21 07:37:47;;;;;;;2.92;0.80;;;22.30;55.50;;;;;;4431134;32;20417;-68
2022/06/21 07:40:36;;;;;;;0.90;0.52;;;22.30;55.30;;;;;;4430987;32;20420;-68
2022/06/21 07:43:32;;;;;;;2.55;0.80;;;22.40;55.30;;;;;;4419647;32;20097;-72
2022/06/21 07:46:01;;;;;;;2.65;0.93;;;22.40;55.10;;;;;;4431229;32;20145;-68
2022/06/21 07:48:49;;;;;;;3.40;0.82;;;22.50;55.00;;;;;;4430952;32;20118;-68
2022/06/21 07:51:39;;;;;;;2.03;0.88;;;22.50;54.80;;;;;;4431194;32;20066;-68
2022/06/21 07:54:41;;;;;;;4.55;0.90;;;22.50;54.70;;;;;;4430894;32;20497;-69
2022/06/21 07:57:35;;;;;;;2.63;0.77;;;22.60;54.80;;;;;;4431156;32;20107;-68
2022/06/21 08:00:03;;;;;;;;;;;22.60;54.60;;;;;;4429203;32;20122;-67
2022/06/21 08:08:40;;;;;;;;;;;22.70;54.30;;;;;;4419682;32;20094;-67
2022/06/21 08:11:24;;;;;;;2.45;0.95;;;22.70;54.30;;;;;;4430351;32;20026;-67
2022/06/21 08:13:50;;;;;;;2.85;0.93;;;22.70;54.30;;;;;;4430640;32;20412;-67
2022/06/21 08:16:18;;;;;;;4.03;0.95;;;22.70;54.40;;;;;;4416740;32;20089;-68
2022/06/21 08:19:12;;;;;;;7.20;1.00;;;22.70;54.30;;;;;;4430666;32;20089;-68
2022/06/21 08:21:48;;;;;;;1.38;0.80;;;22.80;54.30;;;;;;4430549;32;20220;-68
2022/06/21 08:24:20;;;;;;;2.15;0.88;;;22.80;54.20;;;;;;4430481;32;20385;-68
2022/06/21 08:27:01;;;;;;;2.78;1.40;;;22.80;54.00;;;;;;4430294;32;20590;-68
2022/06/21 08:30:00;;;;;;;2.83;0.82;;;22.90;53.90;;;;;;4418535;32;20114;-68
2022/06/21 08:32:29;;;;;;;3.72;1.20;;;22.90;53.80;;;;;;4430323;32;20085;-67
2022/06/21 08:35:29;;;;;;;4.05;1.23;;;22.90;53.70;;;;;;4418705;32;20063;-67
2022/06/21 08:38:26;;;;;;;4.45;1.20;;;22.90;53.70;;;;;;4418937;32;20101;-68
2022/06/21 08:44:39;;;;;;;4.40;1.10;;;23.00;53.40;;;;;;4400051;32;20402;-67
2022/06/21 08:47:29;;;;;;;3.95;1.05;;;23.00;53.20;;;;;;4399562;32;20094;-68
2022/06/21 08:50:27;;;;;;;5.65;1.27;;;23.00;53.20;;;;;;4398447;32;20138;-68
2022/06/21 08:53:21;;;;;;;4.32;1.05;;;23.00;53.30;;;;;;4398797;32;20477;-68
2022/06/21 08:55:59;;;;;;;2.85;1.05;;;23.00;53.50;;;;;;4411172;32;20206;-68
2022/06/21 08:58:53;;;;;;;5.78;1.10;;;23.00;53.40;;;;;;4399747;32;20225;-68
2022/06/21 09:01:47;;;;;;;3.00;1.05;;;23.10;53.40;;;;;;4398703;32;20081;-68
2022/06/21 09:04:47;;;;;;;2.45;1.00;;;23.10;53.30;;;;;;4399461;32;20520;-68
2022/06/21 09:07:20;;;;;;;3.10;1.17;;;23.10;52.90;;;;;;4399380;32;20536;-68
2022/06/21 09:10:48;;;;;;;3.67;1.10;;;23.10;52.90;;;;;;4398631;32;20134;-68
2022/06/21 09:13:35;;;;;;;4.95;1.23;;;23.20;52.90;;;;;;4377184;32;20213;-68
2022/06/21 09:16:33;;;;;;;5.03;0.95;;;23.20;52.90;;;;;;4398216;32;20173;-68
2022/06/21 09:19:29;;;;;;;2.47;1.20;;;23.20;52.90;;;;;;4398394;32;20075;-68
2022/06/21 09:22:36;;;;;;;2.00;0.88;;;23.20;53.20;;;;;;4399222;32;20086;-68
2022/06/21 09:25:42;;;;;;;3.28;1.00;;;23.10;53.20;;;;;;4398181;32;20071;-68
2022/06/21 09:28:44;;;;;;;2.85;1.00;;;23.20;52.90;;;;;;4399388;32;20071;-68
2022/06/21 09:31:47;;;;;;;4.53;1.00;;;23.20;52.80;;;;;;4398284;32;20528;-67
2022/06/21 09:34:38;;;;;;;3.53;1.13;;;23.20;52.60;;;;;;4399406;32;20067;-68
2022/06/21 09:37:15;;;;;;;2.25;0.88;;;23.20;52.60;;;;;;4399146;32;20182;-67
2022/06/21 09:40:16;;;;;;;6.57;1.30;;;23.20;52.60;;;;;;4414636;32;20063;-68
2022/06/21 09:43:13;;;;;;;4.45;1.23;;;23.20;52.50;;;;;;4421000;32;20074;-69
2022/06/21 09:45:58;;;;;;;3.35;1.38;;;23.20;52.20;;;;;;4432826;32;20079;-67
2022/06/21 09:48:39;;;;;;;3.15;1.10;;;23.20;52.10;;;;;;4432243;32;20114;-67
2022/06/21 09:51:14;;;;;;;3.95;1.30;;;23.20;51.80;;;;;;4432760;32;20164;-67
2022/06/21 09:53:54;;;;;;;3.55;1.02;;;23.20;52.60;;;;;;4432570;32;20081;-67
2022/06/21 09:57:12;;;;;;;3.40;1.23;;;23.20;51.20;;;;;;4432599;32;20093;-67
2022/06/21 10:00:05;;;;;;;3.85;1.73;;;23.20;51.10;;;;;;4397789;32;20122;-67
2022/06/21 10:03:11;;;;;;;3.08;1.00;;;23.20;51.30;;;;;;4420772;32;20197;-67
2022/06/21 10:06:22;;;;;;;3.40;1.25;;;23.20;51.30;;;;;;4421064;32;20074;-67
2022/06/21 10:08:55;;;;;;;5.15;1.15;;;23.20;51.40;;;;;;4432505;32;20504;-68
2022/06/21 10:11:39;;;;;;;3.80;1.23;;;23.10;51.20;;;;;;4432810;32;20109;-68
2022/06/21 10:14:50;;;;;;;4.85;1.23;;;23.20;51.10;;;;;;4420915;32;20536;-68
2022/06/21 10:17:48;;;;;;;2.75;1.27;;;23.20;50.50;;;;;;4420959;32;20074;-67
2022/06/21 10:20:43;;;;;;;4.43;1.27;;;23.20;50.50;;;;;;4420781;32;20074;-67
2022/06/21 10:23:48;;;;;;;5.38;1.20;;;23.10;50.20;;;;;;4432507;32;20220;-67
2022/06/21 10:26:39;;;;;;;5.70;1.52;;;23.10;50.60;;;;;;4432110;32;20089;-68
2022/06/21 10:30:05;;;;;;;3.67;1.23;;;23.10;50.70;;;;;;4420370;32;20097;-68
2022/06/21 10:32:47;;;;;;;5.38;1.45;;;23.20;50.60;;;;;;4432008;32;20512;-68
2022/06/21 10:35:39;;;;;;;3.13;1.23;;;23.20;50.50;;;;;;4418330;32;20058;-67
2022/06/21 10:38:08;;;;;;;2.85;1.20;;;23.20;50.40;;;;;;4432057;32;20093;-68
2022/06/21 10:41:00;;;;;;;3.05;1.20;;;23.20;50.50;;;;;;4420280;32;20090;-67
2022/06/21 10:44:39;;;;;;;4.20;1.02;;;23.20;50.60;;;;;;4409917;32;20082;-68
2022/06/21 10:47:44;;;;;;;4.18;1.00;;;23.20;50.30;;;;;;4420144;32;20086;-67
2022/06/21 10:50:16;;;;;;;4.47;1.60;;;23.20;50.30;;;;;;4431965;32;20160;-68
2022/06/21 10:53:00;;;;;;;3.83;1.30;;;23.20;50.40;;;;;;4431436;32;20113;-67
2022/06/21 10:55:48;;;;;;;2.88;1.00;;;23.20;50.30;;;;;;4432026;32;20074;-67
2022/06/21 10:58:29;;;;;;;3.42;1.00;;;23.30;50.40;;;;;;4431998;32;20078;-67
2022/06/21 11:01:17;;;;;;;2.28;1.20;;;23.30;50.30;;;;;;4431390;32;20070;-67
2022/06/21 11:04:17;;;;;;;3.80;1.20;;;23.30;50.20;;;;;;4431722;32;20089;-67
2022/06/21 11:07:03;;;;;;;6.75;1.42;;;23.30;49.80;;;;;;4431446;32;20208;-67
2022/06/21 11:10:15;;;;;;;3.05;1.20;;;23.30;49.30;;;;;;4420244;32;20074;-67
2022/06/21 11:13:06;;;;;;;6.00;1.30;;;23.30;49.20;;;;;;4420076;32;20142;-67
2022/06/21 11:16:07;;;;;;;3.03;1.08;;;23.30;49.30;;;;;;4419895;32;20074;-66
2022/06/21 11:18:43;;;;;;;4.55;1.77;;;23.30;49.00;;;;;;4431438;32;20070;-68
2022/06/21 11:21:49;;;;;;;3.88;1.27;;;23.30;49.10;;;;;;4419618;32;20070;-67
2022/06/21 11:24:45;;;;;;;3.03;1.05;;;23.30;48.80;;;;;;4419945;32;20082;-68
2022/06/21 11:27:52;;;;;;;2.72;1.10;;;23.40;49.10;;;;;;4431322;32;20066;-67
2022/06/21 11:31:00;;;;;;;2.63;1.00;;;23.40;49.30;;;;;;4419506;32;20129;-68
2022/06/21 11:33:46;;;;;;;2.13;1.00;;;23.40;49.40;;;;;;4419869;32;20234;-68
2022/06/21 11:36:21;;;;;;;4.63;1.30;;;23.40;49.40;;;;;;4431268;32;20087;-68
2022/06/21 11:39:33;;;;;;;2.85;1.08;;;23.40;49.50;;;;;;4419458;32;20385;-67
2022/06/21 11:42:23;;;;;;;2.92;1.23;;;23.40;49.40;;;;;;4431639;32;20216;-67
2022/06/21 11:45:37;;;;;;;1.77;0.90;;;23.40;49.50;;;;;;4419341;32;20096;-67
2022/06/21 11:48:57;;;;;;;3.03;1.23;;;23.40;49.50;;;;;;4419441;32;20101;-66
2022/06/21 11:51:43;;;;;;;1.70;0.90;;;23.40;49.40;;;;;;4358002;32;20084;-67
2022/06/21 11:54:55;;;;;;;2.03;0.85;;;23.40;49.50;;;;;;4419473;32;20098;-68
2022/06/21 11:57:46;;;;;;;2.25;1.00;;;23.50;49.40;;;;;;4409788;32;20224;-68
2022/06/21 12:00:38;;;;;;;2.05;0.93;;;23.50;48.90;;;;;;4430909;32;20122;-67
2022/06/21 12:03:39;;;;;;;2.17;1.25;;;23.50;48.10;;;;;;4419040;32;20228;-67
2022/06/21 12:06:50;;;;;;;4.10;1.13;;;23.50;47.80;;;;;;4419211;32;20377;-68
2022/06/21 12:09:50;;;;;;;2.58;0.90;;;23.60;47.40;;;;;;4430713;32;20156;-67
2022/06/21 12:12:38;;;;;;;4.13;1.10;;;23.50;47.40;;;;;;4430512;32;20108;-67
2022/06/21 12:15:59;;;;;;;4.05;1.13;;;23.60;47.60;;;;;;4418926;32;20082;-67
2022/06/21 12:18:29;;;;;;;3.30;0.80;;;23.60;47.80;;;;;;4430858;32;20105;-67
2022/06/21 12:21:01;;;;;;;5.25;1.10;;;23.60;48.10;;;;;;4430490;32;20485;-67
2022/06/21 12:23:56;;;;;;;4.28;1.13;;;23.60;48.20;;;;;;4430429;32;20090;-67
2022/06/21 12:26:25;;;;;;;8.57;1.40;;;23.60;48.30;;;;;;4430567;32;20220;-68
2022/06/21 12:29:15;;;;;;;3.17;0.93;;;23.60;48.60;;;;;;4418775;32;20125;-67
2022/06/21 12:31:48;;;;;;;4.10;1.00;;;23.60;49.10;;;;;;4430593;32;20184;-68
2022/06/21 12:34:23;;;;;;;10.63;1.23;;;23.50;49.30;;;;;;4430075;32;20530;-67
2022/06/21 12:37:37;;;;;;;3.75;0.80;;;23.50;49.60;;;;;;4418920;32;20405;-67
2022/06/21 12:40:06;;;;;;;;;;;23.50;49.80;;;;;;4423566;32;20508;-68
2022/06/21 12:43:23;;;;;;;4.18;0.77;;;23.40;50.00;;;;;;4418805;32;19971;-71
2022/06/21 12:46:04;;;;;;;3.50;0.90;;;23.40;50.10;;;;;;4403254;32;20104;-67
2022/06/21 12:49:18;;;;;;;4.25;1.17;;;23.40;50.30;;;;;;4418584;32;20204;-67
2022/06/21 12:51:54;;;;;;;5.40;0.90;;;23.40;50.60;;;;;;4430261;32;20100;-68
2022/06/21 12:55:05;;;;;;;3.28;1.27;;;23.40;50.70;;;;;;4418614;32;20125;-68
2022/06/21 12:57:42;;;;;;;5.05;1.10;;;23.40;51.00;;;;;;4429902;32;20416;-68
2022/06/21 13:00:25;;;;;;;4.07;0.88;;;23.40;51.00;;;;;;4430296;32;20132;-67
2022/06/21 13:02:51;;;;;;;4.47;1.10;;;23.40;51.10;;;;;;4429738;32;20090;-68
2022/06/21 13:05:44;;;;;;;5.43;1.10;;;23.40;51.10;;;;;;4430155;32;20293;-68
2022/06/21 13:08:34;;;;;;;3.65;1.10;;;23.40;51.20;;;;;;4429782;32;20610;-68
2022/06/21 13:11:24;;;;;;;2.22;0.65;;;23.40;51.30;;;;;;4429874;32;20157;-68
2022/06/21 13:14:05;;;;;;;2.35;0.85;;;23.40;51.30;;;;;;4429841;32;20082;-68
2022/06/21 13:17:16;;;;;;;3.88;1.30;;;23.40;51.30;;;;;;4418185;32;20515;-67
2022/06/21 13:20:06;;;;;;;4.05;0.93;;;23.40;51.40;;;;;;4415657;32;20088;-68
2022/06/21 13:23:01;;;;;;;2.85;1.13;;;23.40;51.40;;;;;;4429760;32;20082;-68
2022/06/21 13:25:35;;;;;;;1.45;0.90;;;23.50;51.40;;;;;;4429752;32;20092;-68
2022/06/21 13:28:29;;;;;;;1.45;1.10;;;23.50;52.40;;;;;;4429646;32;20096;-67
2022/06/21 13:31:16;;;;;;;4.55;0.95;;;23.50;51.50;;;;;;4429451;32;20188;-67
2022/06/21 13:33:54;;;;;;;2.33;0.90;;;23.50;51.50;;;;;;4429656;32;20093;-67
2022/06/21 13:36:46;;;;;;;3.30;0.70;;;23.50;51.60;;;;;;4418206;32;20082;-67
2022/06/21 13:39:24;;;;;;;2.45;0.80;;;23.50;51.60;;;;;;4429624;32;20527;-68
2022/06/21 13:42:39;;;;;;;3.80;0.93;;;23.50;51.70;;;;;;4417956;32;20172;-68
2022/06/21 13:45:35;;;;;;;3.65;0.93;;;23.50;51.70;;;;;;4429640;32;20255;-69
2022/06/21 13:48:24;;;;;;;3.30;0.82;;;23.50;51.80;;;;;;4418036;32;20126;-68
2022/06/21 13:51:11;;;;;;;2.15;0.77;;;23.50;51.80;;;;;;4429433;32;20070;-67
2022/06/21 13:54:03;;;;;;;3.10;1.00;;;23.60;51.90;;;;;;4429292;32;20085;-68
2022/06/21 13:57:16;;;;;;;2.55;0.75;;;23.60;52.00;;;;;;4418104;32;20220;-67
2022/06/21 13:59:45;;;;;;;2.20;0.80;;;23.60;52.00;;;;;;4397715;32;20089;-67
2022/06/21 14:02:53;;;;;;;1.65;0.70;;;23.60;52.00;;;;;;4418134;32;20404;-67
2022/06/21 14:05:50;;;;;;;3.55;1.08;;;23.60;52.10;;;;;;4418000;32;20101;-68
2022/06/21 14:08:35;;;;;;;4.22;0.88;;;23.60;52.10;;;;;;4429691;32;20082;-67
2022/06/21 14:11:33;;;;;;;2.63;0.80;;;23.60;52.10;;;;;;4429762;32;20423;-67
2022/06/21 14:14:19;;;;;;;1.77;0.70;;;23.60;52.20;;;;;;4421230;32;20086;-68
2022/06/21 14:16:52;;;;;;;1.75;0.70;;;23.60;52.20;;;;;;4429711;32;20091;-67
2022/06/21 14:19:35;;;;;;;3.38;0.80;;;23.60;52.30;;;;;;4429675;32;20482;-67
2022/06/21 14:22:54;;;;;;;1.50;0.70;;;23.60;52.30;;;;;;4429265;32;20082;-67
2022/06/21 14:25:33;;;;;;;2.17;0.85;;;23.60;52.40;;;;;;4426271;32;20151;-67
2022/06/21 14:28:36;;;;;;;1.92;0.85;;;23.60;52.40;;;;;;4430962;32;20074;-68
2022/06/21 14:31:18;;;;;;;2.20;0.82;;;23.60;52.50;;;;;;4429291;32;20144;-68
2022/06/21 14:34:33;;;;;;;3.28;0.80;;;23.60;52.50;;;;;;4420715;32;20074;-68
2022/06/21 14:37:15;;;;;;;3.30;1.05;;;23.60;52.60;;;;;;4424224;32;20082;-68